createdAt,value
2018-03-07T00:02:04.811Z,95672.95
2018-03-07T00:04:33.078Z,95668.72
2018-03-07T00:07:02.095Z,95666.67
2018-03-07T00:09:30.368Z,95671.42
2018-03-07T00:11:58.640Z,95671.64
2018-03-07T00:14:26.882Z,95672.30
2018-03-07T00:16:55.137Z,95678.72
2018-03-07T00:19:23.398Z,95684.27
2018-03-07T00:21:51.649Z,95672.16
2018-03-07T00:24:19.934Z,95672.20
2018-03-07T00:26:48.189Z,95683.27
2018-03-07T00:29:16.442Z,95680.13
2018-03-07T00:31:45.480Z,95680.36
2018-03-07T00:34:13.731Z,95683.31
2018-03-07T00:36:41.986Z,95681.95
2018-03-07T00:39:10.266Z,95677.66
2018-03-07T00:41:39.278Z,95675.88
2018-03-07T00:44:07.546Z,95673.05
2018-03-07T00:46:36.563Z,95680.31
2018-03-07T00:49:04.810Z,95676.50
2018-03-07T00:51:33.838Z,95679.44
2018-03-07T00:54:02.088Z,95681.47
2018-03-07T00:56:31.103Z,95685.28
2018-03-07T00:58:59.365Z,95680.16
2018-03-07T01:01:27.623Z,95677.58
2018-03-07T01:03:56.666Z,95679.25
2018-03-07T01:06:24.919Z,95676.80
2018-03-07T01:08:53.166Z,95667.52
2018-03-07T01:11:22.195Z,95669.34
2018-03-07T01:13:50.442Z,95670.36
2018-03-07T01:16:19.476Z,95663.20
2018-03-07T01:18:47.726Z,95656.55
2018-03-07T01:21:15.986Z,95658.88
2018-03-07T01:23:45.014Z,95662.42
2018-03-07T01:26:13.271Z,95649.75
2018-03-07T01:28:41.521Z,95655.06
2018-03-07T01:31:10.554Z,95662.72
2018-03-07T01:33:38.800Z,95665.78
2018-03-07T01:36:07.834Z,95670.69
2018-03-07T01:38:36.086Z,95669.81
2018-03-07T01:41:04.342Z,95674.05
2018-03-07T01:43:33.379Z,95675.23
2018-03-07T01:46:01.642Z,95681.14
2018-03-07T01:48:29.894Z,95683.18
2018-03-07T01:50:58.925Z,95675.15
2018-03-07T01:53:27.174Z,95671.39
2018-03-07T01:55:55.442Z,95669.18
2018-03-07T01:58:23.791Z,95668.02
2018-03-07T02:00:52.054Z,95669.09
2018-03-07T02:03:20.303Z,95664.41
2018-03-07T02:05:48.559Z,95661.83
2018-03-07T02:08:16.832Z,95665.04
2018-03-07T02:10:45.075Z,95659.53
2018-03-07T02:13:14.106Z,95657.49
2018-03-07T02:15:42.373Z,95660.27
2018-03-07T02:18:10.630Z,95657.17
2018-03-07T02:20:39.643Z,95661.09
2018-03-07T02:23:07.911Z,95671.86
2018-03-07T02:25:36.938Z,95666.61
2018-03-07T02:28:05.191Z,95660.77
2018-03-07T02:30:33.464Z,95656.30
2018-03-07T02:33:01.717Z,95657.50
2018-03-07T02:35:31.499Z,95655.72
2018-03-07T02:37:59.749Z,95646.86
2018-03-07T02:40:28.019Z,95649.55
2018-03-07T02:42:56.289Z,95653.31
2018-03-07T02:45:24.533Z,95655.05
2018-03-07T02:47:53.559Z,95655.70
2018-03-07T02:50:21.842Z,95665.09
2018-03-07T02:52:50.078Z,95656.97
2018-03-07T02:55:19.099Z,95651.31
2018-03-07T02:57:47.364Z,95658.36
2018-03-07T03:00:15.614Z,95654.53
2018-03-07T03:02:43.858Z,95662.75
2018-03-07T03:05:12.139Z,95666.16
2018-03-07T03:07:40.393Z,95659.28
2018-03-07T03:10:08.646Z,95661.77
2018-03-07T03:12:36.930Z,95667.80
2018-03-07T03:15:05.199Z,95666.75
2018-03-07T03:17:33.451Z,95669.15
2018-03-07T03:20:01.744Z,95673.82
2018-03-07T03:22:29.996Z,95682.38
2018-03-07T03:24:58.260Z,95679.65
2018-03-07T03:27:26.550Z,95676.46
2018-03-07T03:29:54.812Z,95682.64
2018-03-07T03:32:23.097Z,95685.61
2018-03-07T03:34:51.358Z,95679.95
2018-03-07T03:37:19.613Z,95682.64
2018-03-07T03:39:47.887Z,95681.49
2018-03-07T03:42:16.169Z,95678.86
2018-03-07T03:44:44.448Z,95681.41
2018-03-07T03:47:12.748Z,95685.52
2018-03-07T03:49:41.024Z,95687.08
2018-03-07T03:52:10.056Z,95681.89
2018-03-07T03:54:38.316Z,95680.30
2018-03-07T03:57:07.368Z,95677.89
2018-03-07T03:59:35.627Z,95677.78
2018-03-07T04:02:03.897Z,95683.40
2018-03-07T04:04:32.182Z,95676.77
2018-03-07T04:07:00.449Z,95677.64
2018-03-07T04:09:28.884Z,95681.20
2018-03-07T04:11:57.921Z,95684.30
2018-03-07T04:14:26.204Z,95688.31
2018-03-07T04:16:54.469Z,95695.03
2018-03-07T04:19:22.745Z,95693.05
2018-03-07T04:21:50.999Z,95691.27
2018-03-07T04:24:19.283Z,95691.36
2018-03-07T04:26:47.533Z,95691.64
2018-03-07T04:29:16.568Z,95696.78
2018-03-07T04:31:44.839Z,95701.77
2018-03-07T04:34:13.115Z,95689.36
2018-03-07T04:36:41.380Z,95690.95
2018-03-07T04:39:09.655Z,95693.60
2018-03-07T04:41:37.920Z,95692.76
2018-03-07T04:44:06.963Z,95696.48
2018-03-07T04:46:35.220Z,95693.12
2018-03-07T04:49:03.489Z,95698.49
2018-03-07T04:51:31.755Z,95699.55
2018-03-07T04:54:00.024Z,95700.47
2018-03-07T04:56:28.302Z,95705.09
2018-03-07T04:58:56.556Z,95705.41
2018-03-07T05:01:25.580Z,95704.60
2018-03-07T05:03:53.885Z,95700.08
2018-03-07T05:06:22.136Z,95702.87
2018-03-07T05:08:50.504Z,95703.30
2018-03-07T05:11:18.811Z,95700.19
2018-03-07T05:13:47.172Z,95701.96
2018-03-07T05:16:15.431Z,95702.84
2018-03-07T05:18:43.728Z,95708.64
2018-03-07T05:21:12.006Z,95706.22
2018-03-07T05:23:40.255Z,95711.70
2018-03-07T05:26:09.272Z,95711.13
2018-03-07T05:28:37.550Z,95713.13
2018-03-07T05:31:05.808Z,95713.92
2018-03-07T05:33:34.076Z,95720.85
2018-03-07T05:36:02.356Z,95717.89
2018-03-07T05:38:30.616Z,95723.43
2018-03-07T05:40:59.635Z,95732.50
2018-03-07T05:43:27.913Z,95728.74
2018-03-07T05:45:56.172Z,95735.50
2018-03-07T05:48:24.429Z,95736.55
2018-03-07T05:50:53.472Z,95737.69
2018-03-07T05:53:21.727Z,95736.95
2018-03-07T05:55:49.991Z,95742.44
2018-03-07T05:58:19.044Z,95735.33
2018-03-07T06:00:47.304Z,95741.05
2018-03-07T06:03:15.576Z,95739.50
2018-03-07T06:05:43.838Z,95747.98
2018-03-07T06:08:12.084Z,95748.57
2018-03-07T06:10:41.120Z,95756.30
2018-03-07T06:13:09.396Z,95754.00
2018-03-07T06:15:37.655Z,95764.78
2018-03-07T06:18:05.912Z,95766.86
2018-03-07T06:20:34.975Z,95774.73
2018-03-07T06:23:03.265Z,95773.89
2018-03-07T06:25:31.531Z,95773.63
2018-03-07T06:27:59.795Z,95781.81
2018-03-07T06:30:28.060Z,95783.23
2018-03-07T06:32:56.312Z,95787.28
2018-03-07T06:35:24.608Z,95788.50
2018-03-07T06:37:52.863Z,95786.87
2018-03-07T06:40:21.135Z,95795.59
2018-03-07T06:42:49.406Z,95799.29
2018-03-07T06:45:17.664Z,95806.39
2018-03-07T06:47:46.687Z,95805.30
2018-03-07T06:50:15.056Z,95809.08
2018-03-07T06:52:43.298Z,95808.13
2018-03-07T06:55:12.353Z,95814.97
2018-03-07T06:57:40.620Z,95823.28
2018-03-07T07:00:08.884Z,95819.64
2018-03-07T07:02:37.152Z,95824.63
2018-03-07T07:05:05.424Z,95819.86
2018-03-07T07:07:33.693Z,95822.50
2018-03-07T07:10:01.981Z,95821.93
2018-03-07T07:12:30.244Z,95832.80
2018-03-07T07:14:58.508Z,95833.20
2018-03-07T07:17:27.564Z,95832.39
2018-03-07T07:19:55.828Z,95830.47
2018-03-07T07:22:24.075Z,95839.30
2018-03-07T07:24:52.355Z,95836.08
2018-03-07T07:27:20.637Z,95830.39
2018-03-07T07:29:48.915Z,95833.05
2018-03-07T07:32:17.192Z,95835.00
2018-03-07T07:34:45.460Z,95836.53
2018-03-07T07:37:13.744Z,95839.08
2018-03-07T07:39:42.114Z,95837.14
2018-03-07T07:42:10.377Z,95841.89
2018-03-07T07:44:38.692Z,95839.00
2018-03-07T07:47:07.797Z,95843.31
2018-03-07T07:49:36.060Z,95845.59
2018-03-07T07:52:04.367Z,95848.09
2018-03-07T07:54:32.649Z,95843.38
2018-03-07T07:57:00.899Z,95846.05
2018-03-07T07:59:29.252Z,95844.81
2018-03-07T08:01:57.503Z,95847.93
2018-03-07T08:04:25.795Z,95842.96
2018-03-07T08:06:54.062Z,95852.88
2018-03-07T08:09:22.320Z,95846.87
2018-03-07T08:11:51.341Z,95850.69
2018-03-07T08:14:19.616Z,95845.31
2018-03-07T08:16:47.880Z,95850.66
2018-03-07T08:19:16.138Z,95850.04
2018-03-07T08:21:45.209Z,95851.70
2018-03-07T08:24:13.464Z,95844.17
2018-03-07T08:26:41.721Z,95849.22
2018-03-07T08:29:10.017Z,95855.80
2018-03-07T08:31:38.271Z,95856.55
2018-03-07T08:34:06.543Z,95858.07
2018-03-07T08:36:34.808Z,95861.78
2018-03-07T08:39:03.065Z,95863.53
2018-03-07T08:41:32.108Z,95865.08
2018-03-07T08:44:00.363Z,95861.70
2018-03-07T08:46:28.683Z,95867.36
2018-03-07T08:48:56.962Z,95866.09
2018-03-07T08:51:25.248Z,95867.90
2018-03-07T08:53:53.528Z,95872.23
2018-03-07T08:56:21.784Z,95875.88
2018-03-07T08:58:50.052Z,95869.44
2018-03-07T09:01:18.323Z,95877.82
2018-03-07T09:03:46.601Z,95873.94
2018-03-07T09:06:14.848Z,95879.05
2018-03-07T09:08:43.129Z,95875.28
2018-03-07T09:11:11.392Z,95882.27
2018-03-07T09:13:39.655Z,95883.41
2018-03-07T09:16:08.732Z,95885.55
2018-03-07T09:18:37.016Z,95889.77
2018-03-07T09:21:06.036Z,95886.75
2018-03-07T09:23:34.308Z,95891.02
2018-03-07T09:26:02.602Z,95893.58
2018-03-07T09:28:30.909Z,95895.39
2018-03-07T09:30:59.241Z,95895.42
2018-03-07T09:33:27.488Z,95894.50
2018-03-07T09:35:56.529Z,95899.99
2018-03-07T09:38:24.808Z,95903.02
2018-03-07T09:40:53.085Z,95902.55
2018-03-07T09:43:21.366Z,95899.65
2018-03-07T09:45:49.639Z,95907.02
2018-03-07T09:48:17.884Z,95903.73
2018-03-07T09:50:46.169Z,95901.91
2018-03-07T09:53:14.428Z,95902.11
2018-03-07T09:55:42.696Z,95900.09
2018-03-07T09:58:11.728Z,95900.64
2018-03-07T10:00:39.993Z,95896.28
2018-03-07T10:03:08.248Z,95896.59
2018-03-07T10:05:36.545Z,95890.99
2018-03-07T10:08:04.811Z,95892.31
2018-03-07T10:10:33.084Z,95894.95
2018-03-07T10:13:01.369Z,95899.87
2018-03-07T10:15:29.656Z,95900.65
2018-03-07T10:17:57.920Z,95906.48
2018-03-07T10:20:26.219Z,95908.09
2018-03-07T10:22:54.548Z,95906.22
2018-03-07T10:25:23.591Z,95907.48
2018-03-07T10:27:51.877Z,95908.43
2018-03-07T10:30:20.149Z,95902.50
2018-03-07T10:32:48.418Z,95901.22
2018-03-07T10:35:16.708Z,95907.27
2018-03-07T10:37:44.983Z,95919.74
2018-03-07T10:40:13.274Z,95924.19
2018-03-07T10:42:41.608Z,95927.38
2018-03-07T10:45:09.876Z,95928.98
2018-03-07T10:47:38.227Z,95924.67
2018-03-07T10:50:07.271Z,95925.34
2018-03-07T10:52:35.614Z,95930.64
2018-03-07T10:55:03.944Z,95936.05
2018-03-07T10:57:32.272Z,95930.67
2018-03-07T11:00:00.571Z,95929.94
2018-03-07T11:02:28.953Z,95930.66
2018-03-07T11:04:57.207Z,95936.22
2018-03-07T11:07:25.484Z,95934.42
2018-03-07T11:09:53.754Z,95931.41
2018-03-07T11:12:22.037Z,95937.95
2018-03-07T11:14:50.303Z,95941.47
2018-03-07T11:17:18.580Z,95946.95
2018-03-07T11:19:46.873Z,95939.08
2018-03-07T11:22:15.147Z,95947.02
2018-03-07T11:25:07.760Z,95754.64
2018-03-07T11:27:36.888Z,95952.02
2018-03-07T11:30:05.221Z,95958.38
2018-03-07T11:32:34.363Z,95955.78
2018-03-07T11:35:02.643Z,95955.98
2018-03-07T11:37:30.900Z,95962.48
2018-03-07T11:39:59.194Z,95963.18
2018-03-07T11:42:27.476Z,95974.45
2018-03-07T11:44:55.735Z,95969.17
2018-03-07T11:47:24.023Z,95968.53
2018-03-07T11:49:52.285Z,95964.03
2018-03-07T11:52:20.604Z,95955.59
2018-03-07T11:54:48.875Z,95957.19
2018-03-07T11:57:17.152Z,95967.09
2018-03-07T11:59:45.443Z,95965.66
2018-03-07T12:02:13.723Z,95964.73
2018-03-07T12:04:42.000Z,95962.20
2018-03-07T12:07:10.309Z,95956.47
2018-03-07T12:09:39.328Z,95960.05
2018-03-07T12:12:07.580Z,95961.70
2018-03-07T12:14:35.885Z,95952.00
2018-03-07T12:17:04.149Z,95954.05
2018-03-07T12:19:32.407Z,95947.45
2018-03-07T12:22:01.450Z,95953.17
2018-03-07T12:24:29.711Z,95945.87
2018-03-07T12:26:57.960Z,95943.95
2018-03-07T12:29:27.268Z,95945.02
2018-03-07T12:31:55.549Z,95939.78
2018-03-07T12:34:23.816Z,95943.97
2018-03-07T12:36:52.083Z,95945.69
2018-03-07T12:39:20.343Z,95942.92
2018-03-07T12:41:49.411Z,95942.09
2018-03-07T12:44:17.641Z,95944.23
2018-03-07T12:46:45.906Z,95941.46
2018-03-07T12:49:14.926Z,95943.17
2018-03-07T12:51:43.195Z,95956.69
2018-03-07T12:54:11.448Z,95950.17
2018-03-07T12:56:39.699Z,95955.83
2018-03-07T12:59:08.017Z,95956.84
2018-03-07T13:01:36.300Z,95956.94
2018-03-07T13:04:04.663Z,95967.26
2018-03-07T13:06:32.916Z,95957.73
2018-03-07T13:09:01.950Z,95965.80
2018-03-07T13:11:30.320Z,95975.91
2018-03-07T13:13:58.607Z,95969.63
2018-03-07T13:16:26.892Z,95975.18
2018-03-07T13:18:55.150Z,95979.81
2018-03-07T13:21:23.396Z,95981.88
2018-03-07T13:23:52.436Z,95984.69
2018-03-07T13:26:20.693Z,95986.39
2018-03-07T13:28:48.967Z,95987.00
2018-03-07T13:31:17.256Z,95993.47
2018-03-07T13:33:45.501Z,95993.56
2018-03-07T13:36:14.617Z,95989.59
2018-03-07T13:38:42.871Z,95992.62
2018-03-07T13:41:11.991Z,96000.81
2018-03-07T13:43:40.254Z,95994.86
2018-03-07T13:46:08.515Z,95987.19
2018-03-07T13:48:37.539Z,95993.23
2018-03-07T13:51:05.828Z,95995.27
2018-03-07T13:53:34.093Z,95992.48
2018-03-07T13:56:02.344Z,95996.08
2018-03-07T13:58:30.719Z,95995.25
2018-03-07T14:00:59.751Z,95992.44
2018-03-07T14:03:28.021Z,95994.34
2018-03-07T14:05:56.263Z,95993.08
2018-03-07T14:08:25.376Z,95997.27
2018-03-07T14:10:53.632Z,95993.20
2018-03-07T14:13:22.748Z,95993.73
2018-03-07T14:15:51.131Z,95988.55
2018-03-07T14:18:19.408Z,95992.31
2018-03-07T14:20:47.663Z,95990.48
2018-03-07T14:23:16.806Z,95995.70
2018-03-07T14:25:45.060Z,95993.08
2018-03-07T14:28:13.339Z,95990.83
2018-03-07T14:30:41.707Z,95999.36
2018-03-07T14:33:09.972Z,95997.63
2018-03-07T14:35:38.260Z,95992.58
2018-03-07T14:38:06.513Z,95994.30
2018-03-07T14:40:35.639Z,95999.47
2018-03-07T14:43:03.904Z,95993.91
2018-03-07T14:45:32.173Z,95998.20
2018-03-07T14:48:00.420Z,95991.11
2018-03-07T14:50:28.740Z,95998.02
2018-03-07T14:52:57.048Z,95998.16
2018-03-07T14:55:25.305Z,95999.52
2018-03-07T14:57:53.612Z,96000.78
2018-03-07T15:00:21.864Z,96006.77
2018-03-07T15:02:50.138Z,96004.34
2018-03-07T15:05:18.428Z,95999.95
2018-03-07T15:07:46.692Z,95999.67
2018-03-07T15:10:15.055Z,96002.27
2018-03-07T15:12:43.346Z,95997.55
2018-03-07T15:15:11.711Z,96002.62
2018-03-07T15:17:39.974Z,96001.40
2018-03-07T15:20:08.339Z,96001.67
2018-03-07T15:22:37.441Z,96005.17
2018-03-07T15:25:05.764Z,96009.67
2018-03-07T15:27:34.560Z,96013.05
2018-03-07T15:30:04.011Z,96007.75
2018-03-07T15:32:33.066Z,96011.08
2018-03-07T15:35:01.496Z,96006.38
2018-03-07T15:37:29.957Z,96007.34
2018-03-07T15:39:58.339Z,96008.55
2018-03-07T15:42:26.829Z,96011.84
2018-03-07T15:44:55.232Z,96013.22
2018-03-07T15:47:23.593Z,96020.14
2018-03-07T15:49:51.950Z,96016.77
2018-03-07T15:52:20.307Z,96014.72
2018-03-07T15:54:49.547Z,96013.14
2018-03-07T15:57:18.131Z,96015.59
2018-03-07T15:59:46.527Z,96020.59
2018-03-07T16:02:15.880Z,96026.08
2018-03-07T16:04:44.329Z,96029.37
2018-03-07T16:07:12.876Z,96029.30
2018-03-07T16:09:41.582Z,96038.02
2018-03-07T16:12:10.058Z,96032.95
2018-03-07T16:14:38.415Z,96031.83
2018-03-07T16:17:07.302Z,96036.30
2018-03-07T16:19:36.595Z,96038.37
2018-03-07T16:22:05.204Z,96038.69
2018-03-07T16:24:33.527Z,96044.55
2018-03-07T16:27:02.677Z,96040.70
2018-03-07T16:29:31.452Z,96046.69
2018-03-07T16:32:00.887Z,96045.77
2018-03-07T16:34:29.748Z,96056.97
2018-03-07T16:36:59.854Z,96061.10
2018-03-07T16:39:28.616Z,96061.81
2018-03-07T16:41:57.440Z,96063.75
2018-03-07T16:44:26.332Z,96064.30
2018-03-07T16:46:55.799Z,96069.72
2018-03-07T16:49:25.905Z,96068.34
2018-03-07T16:51:55.587Z,96067.43
2018-03-07T16:54:25.843Z,96065.91
2018-03-07T16:56:55.755Z,96071.73
2018-03-07T16:59:26.894Z,96064.24
2018-03-07T17:01:56.979Z,96068.11
2018-03-07T17:04:26.636Z,96067.72
2018-03-07T17:06:56.391Z,96076.03
2018-03-07T17:09:27.257Z,96076.35
2018-03-07T17:11:57.044Z,96080.30
2018-03-07T17:14:26.928Z,96084.88
2018-03-07T17:16:57.664Z,96080.25
2018-03-07T17:19:28.038Z,96079.49
2018-03-07T17:21:57.655Z,96083.87
2018-03-07T17:24:27.575Z,96079.17
2018-03-07T17:26:57.614Z,96078.36
2018-03-07T17:29:28.987Z,96079.86
2018-03-07T17:31:59.608Z,96085.03
2018-03-07T17:34:29.571Z,96080.47
2018-03-07T17:36:59.188Z,96087.61
2018-03-07T17:39:29.155Z,96086.50
2018-03-07T17:41:59.021Z,96086.08
2018-03-07T17:44:29.046Z,96094.08
2018-03-07T17:46:58.868Z,96092.71
2018-03-07T17:49:28.888Z,96090.63
2018-03-07T17:51:58.908Z,96097.44
2018-03-07T17:54:28.708Z,96094.48
2018-03-07T17:57:00.328Z,96094.36
2018-03-07T17:59:30.643Z,96094.59
2018-03-07T18:02:00.602Z,96097.11
2018-03-07T18:04:30.537Z,96092.98
2018-03-07T18:07:01.111Z,96099.17
2018-03-07T18:09:30.986Z,96097.02
2018-03-07T18:12:01.651Z,96103.61
2018-03-07T18:14:31.695Z,96108.65
2018-03-07T18:17:01.719Z,96104.97
2018-03-07T18:19:31.690Z,96110.12
2018-03-07T18:22:02.360Z,96111.69
2018-03-07T18:24:32.534Z,96115.95
2018-03-07T18:27:03.560Z,96111.86
2018-03-07T18:29:35.167Z,96113.66
2018-03-07T18:32:05.166Z,96111.45
2018-03-07T18:34:35.320Z,96115.47
2018-03-07T18:37:05.133Z,96110.50
2018-03-07T18:39:35.591Z,96115.45
2018-03-07T18:42:05.520Z,96119.09
2018-03-07T18:44:36.298Z,96119.52
2018-03-07T18:47:06.174Z,96122.14
2018-03-07T18:49:36.214Z,96122.99
2018-03-07T18:52:06.411Z,96117.94
2018-03-07T18:54:37.357Z,96121.11
2018-03-07T18:57:07.427Z,96120.48
2018-03-07T18:59:37.316Z,96128.38
2018-03-07T19:02:07.353Z,96135.61
2018-03-07T19:04:37.533Z,96133.27
2018-03-07T19:07:07.595Z,96131.25
2018-03-07T19:09:37.557Z,96138.73
2018-03-07T19:12:09.352Z,96141.57
2018-03-07T19:14:39.290Z,96142.07
2018-03-07T19:17:09.579Z,96144.10
2018-03-07T19:19:39.435Z,96147.70
2018-03-07T19:22:10.037Z,96149.70
2018-03-07T19:24:40.999Z,96145.64
2018-03-07T19:27:10.868Z,96148.35
2018-03-07T19:29:40.608Z,96149.20
2018-03-07T19:32:10.477Z,96146.00
2018-03-07T19:34:41.176Z,96157.50
2018-03-07T19:37:11.723Z,96155.23
2018-03-07T19:39:42.980Z,96155.41
2018-03-07T19:42:12.897Z,96152.41
2018-03-07T19:44:42.913Z,96162.22
2018-03-07T19:47:12.382Z,96162.70
2018-03-07T19:49:44.332Z,96159.52
2018-03-07T19:52:14.378Z,96166.18
2018-03-07T19:54:45.155Z,96168.42
2018-03-07T19:57:15.254Z,96172.84
2018-03-07T19:59:45.959Z,96169.27
2018-03-07T20:02:16.531Z,96173.76
2018-03-07T20:04:46.527Z,96168.36
2018-03-07T20:07:16.722Z,96169.55
2018-03-07T20:09:46.526Z,96174.03
2018-03-07T20:12:16.620Z,96169.52
2018-03-07T20:14:46.733Z,96176.23
2018-03-07T20:17:16.623Z,96177.55
2018-03-07T20:19:46.639Z,96186.05
2018-03-07T20:22:16.745Z,96187.55
2018-03-07T20:24:46.661Z,96193.16
2018-03-07T20:27:16.805Z,96189.92
2018-03-07T20:29:46.765Z,96193.13
2018-03-07T20:32:17.466Z,96201.06
2018-03-07T20:34:47.644Z,96196.96
2018-03-07T20:37:17.473Z,96197.80
2018-03-07T20:39:47.443Z,96205.44
2018-03-07T20:42:18.146Z,96206.49
2018-03-07T20:44:48.854Z,96211.38
2018-03-07T20:47:18.894Z,96214.59
2018-03-07T20:49:49.300Z,96213.09
2018-03-07T20:52:20.310Z,96217.39
2018-03-07T20:54:51.006Z,96220.29
2018-03-07T20:57:20.766Z,96215.80
2018-03-07T20:59:50.781Z,96216.84
2018-03-07T21:02:22.496Z,96218.09
2018-03-07T21:04:52.604Z,96221.27
2018-03-07T21:07:22.365Z,96224.30
2018-03-07T21:09:53.198Z,96231.22
2018-03-07T21:12:23.948Z,96228.23
2018-03-07T21:14:53.852Z,96236.10
2018-03-07T21:17:23.625Z,96237.05
2018-03-07T21:19:53.655Z,96242.78
2018-03-07T21:22:23.502Z,96247.34
2018-03-07T21:24:54.439Z,96249.52
2018-03-07T21:27:24.423Z,96254.61
2018-03-07T21:29:54.551Z,96255.05
2018-03-07T21:32:26.247Z,96256.06
2018-03-07T21:34:56.220Z,96249.15
2018-03-07T21:37:26.773Z,96255.12
2018-03-07T21:39:57.420Z,96259.02
2018-03-07T21:42:27.201Z,96256.30
2018-03-07T21:44:57.906Z,96258.98
2018-03-07T21:47:27.939Z,96261.85
2018-03-07T21:49:58.696Z,96266.67
2018-03-07T21:52:29.332Z,96264.80
2018-03-07T21:54:59.565Z,96275.89
2018-03-07T21:57:29.350Z,96270.89
2018-03-07T22:00:00.308Z,96275.38
2018-03-07T22:02:30.213Z,96273.69
2018-03-07T22:05:00.966Z,96279.66
2018-03-07T22:07:30.802Z,96283.20
2018-03-07T22:10:01.577Z,96287.44
2018-03-07T22:12:31.261Z,96291.88
2018-03-07T22:15:01.443Z,96288.99
2018-03-07T22:17:31.315Z,96293.19
2018-03-07T22:20:01.249Z,96293.66
2018-03-07T22:22:31.944Z,96297.98
2018-03-07T22:25:01.559Z,96297.98
2018-03-07T22:27:31.138Z,96300.13
2018-03-07T22:29:59.628Z,96302.89
2018-03-07T22:32:28.017Z,96310.34
2018-03-07T22:34:57.141Z,96308.44
2018-03-07T22:37:25.535Z,96311.70
2018-03-07T22:39:53.819Z,96318.56
2018-03-07T22:42:22.104Z,96316.02
2018-03-07T22:44:50.374Z,96319.88
2018-03-07T22:47:18.644Z,96317.69
2018-03-07T22:49:46.904Z,96318.17
2018-03-07T22:52:15.174Z,96318.39
2018-03-07T22:54:43.428Z,96319.22
2018-03-07T22:57:11.775Z,96321.38
2018-03-07T22:59:40.032Z,96322.27
2018-03-07T23:02:08.279Z,96319.02
2018-03-07T23:04:36.546Z,96327.83
2018-03-07T23:07:05.610Z,96329.80
2018-03-07T23:09:33.856Z,96329.63
2018-03-07T23:12:02.135Z,96333.71
2018-03-07T23:14:30.380Z,96334.27
2018-03-07T23:16:58.640Z,96337.56
2018-03-07T23:19:27.676Z,96344.34
2018-03-07T23:21:55.939Z,96347.91
2018-03-07T23:24:24.192Z,96350.41
2018-03-07T23:26:52.472Z,96342.91
2018-03-07T23:29:21.488Z,96345.91
2018-03-07T23:31:49.772Z,96347.30
2018-03-07T23:34:18.126Z,96351.09
2018-03-07T23:36:46.408Z,96356.13
2018-03-07T23:39:14.670Z,96359.42
2018-03-07T23:41:43.708Z,96363.64
2018-03-07T23:44:11.968Z,96360.20
2018-03-07T23:46:40.315Z,96361.99
2018-03-07T23:49:08.581Z,96363.89
2018-03-07T23:51:37.604Z,96365.91
2018-03-07T23:54:05.883Z,96368.36
2018-03-07T23:56:34.156Z,96371.57
2018-03-07T23:59:02.536Z,96377.22
